Time,TemperatureF,DewpointF,PressureIn,WindDirection,WindDirectionDegrees,WindSpeedMPH,WindSpeedGustMPH,Humidity,HourlyPrecipIn,Conditions,Clouds,dailyrainin,SolarRadiationWatts/m^2,SoftwareType,DateUTC
2013-05-22 00:01:00,45.0,25.0,-100.00,WNW,287,4.0,6.0,46,0.00,,,0.00,0.000000,,2013-05-22 06:01:00,
2013-05-22 00:32:00,44.0,26.0,-100.00,West,274,3.0,7.0,48,0.00,,,0.00,0.000000,,2013-05-22 06:32:00,
2013-05-22 00:42:00,44.0,26.0,-100.00,West,274,3.0,7.0,48,0.00,,,0.00,0.000000,,2013-05-22 06:42:00,
2013-05-22 00:52:00,44.0,26.0,-100.00,West,274,3.0,7.0,48,0.00,,,0.00,0.000000,,2013-05-22 06:52:00,
2013-05-22 01:01:00,44.0,26.0,-100.00,West,274,3.0,7.0,48,0.00,,,0.00,0.000000,,2013-05-22 07:01:00,
2013-05-22 01:32:00,44.0,26.0,-100.00,South,177,2.0,5.0,49,0.00,,,0.00,0.000000,,2013-05-22 07:32:00,
2013-05-22 01:42:00,44.0,26.0,-100.00,South,177,2.0,5.0,49,0.00,,,0.00,0.000000,,2013-05-22 07:42:00,
2013-05-22 01:53:00,44.0,26.0,-100.00,South,177,2.0,5.0,49,0.00,,,0.00,0.000000,,2013-05-22 07:53:00,
2013-05-22 02:02:00,44.0,26.0,-100.00,South,177,2.0,5.0,49,0.00,,,0.00,0.000000,,2013-05-22 08:02:00,
2013-05-22 02:32:00,43.0,26.0,-100.00,WSW,240,3.0,6.0,50,0.00,,,-99.99,0.000000,,2013-05-22 08:32:00,
2013-05-22 02:42:00,43.0,26.0,-100.00,WSW,240,3.0,6.0,50,0.00,,,-99.99,0.000000,,2013-05-22 08:42:00,
2013-05-22 02:52:00,43.0,26.0,-100.00,WSW,240,3.0,6.0,50,0.00,,,-99.99,0.000000,,2013-05-22 08:52:00,
2013-05-22 03:01:00,43.0,26.0,-100.00,WSW,240,3.0,6.0,50,0.00,,,-99.99,0.000000,,2013-05-22 09:01:00,
2013-05-22 03:33:00,41.0,26.0,-100.00,SW,231,4.0,6.0,54,0.00,,,0.00,0.000000,,2013-05-22 09:33:00,
2013-05-22 03:42:00,41.0,26.0,-100.00,SW,231,4.0,6.0,54,0.00,,,0.00,0.000000,,2013-05-22 09:42:00,
2013-05-22 03:53:00,41.0,26.0,-100.00,SW,231,4.0,6.0,54,0.00,,,0.00,0.000000,,2013-05-22 09:53:00,
2013-05-22 04:03:00,41.0,26.0,-100.00,SW,231,4.0,6.0,54,0.00,,,0.00,0.000000,,2013-05-22 10:03:00,
2013-05-22 04:33:00,41.0,25.0,-100.00,West,273,3.0,5.0,53,0.00,,,0.00,0.000000,,2013-05-22 10:33:00,
2013-05-22 04:42:00,41.0,25.0,-100.00,West,273,3.0,5.0,53,0.00,,,0.00,0.000000,,2013-05-22 10:42:00,
2013-05-22 04:52:00,41.0,25.0,-100.00,West,273,3.0,5.0,53,0.00,,,0.00,0.000000,,2013-05-22 10:52:00,
2013-05-22 05:02:00,41.0,25.0,-100.00,West,273,3.0,5.0,53,0.00,,,0.00,0.000000,,2013-05-22 11:02:00,
2013-05-22 05:32:00,39.0,25.0,-100.00,SE,143,2.0,4.0,56,0.00,,,0.00,0.000000,,2013-05-22 11:32:00,
2013-05-22 05:42:00,39.0,25.0,-100.00,SE,143,2.0,4.0,56,0.00,,,0.00,0.000000,,2013-05-22 11:42:00,
2013-05-22 05:52:00,39.0,25.0,-100.00,SE,143,2.0,4.0,56,0.00,,,0.00,0.000000,,2013-05-22 11:52:00,
2013-05-22 06:02:00,39.0,25.0,-100.00,SE,143,2.0,4.0,56,0.00,,,0.00,0.000000,,2013-05-22 12:02:00,
2013-05-22 06:32:00,40.0,25.0,-100.00,NNE,26,1.0,3.0,55,0.00,,,0.00,6.000000,,2013-05-22 12:32:00,
2013-05-22 06:42:00,40.0,25.0,-100.00,NNE,26,1.0,3.0,55,0.00,,,0.00,6.000000,,2013-05-22 12:42:00,
2013-05-22 06:52:00,40.0,25.0,-100.00,NNE,26,1.0,3.0,55,0.00,,,0.00,6.000000,,2013-05-22 12:52:00,
2013-05-22 07:01:00,40.0,25.0,-100.00,NNE,26,1.0,3.0,55,0.00,,,0.00,6.000000,,2013-05-22 13:01:00,
2013-05-22 08:32:00,50.0,28.0,-100.00,East,84,4.0,5.0,43,-99.99,,,0.00,352.000000,,2013-05-22 14:32:00,
2013-05-22 08:42:00,50.0,28.0,-100.00,East,84,4.0,5.0,43,-99.99,,,0.00,352.000000,,2013-05-22 14:42:00,
2013-05-22 08:53:00,50.0,28.0,-100.00,East,84,4.0,5.0,43,-99.99,,,0.00,352.000000,,2013-05-22 14:53:00,
2013-05-22 09:01:00,50.0,28.0,-100.00,East,84,4.0,5.0,43,-99.99,,,0.00,352.000000,,2013-05-22 15:01:00,
2013-05-22 09:33:00,52.0,25.0,-100.00,ESE,109,5.0,8.0,34,0.00,,,-99.99,564.000000,,2013-05-22 15:33:00,
2013-05-22 09:43:00,52.0,25.0,-100.00,ESE,109,5.0,8.0,34,0.00,,,-99.99,564.000000,,2013-05-22 15:43:00,
2013-05-22 09:53:00,52.0,25.0,-100.00,ESE,109,5.0,8.0,34,0.00,,,-99.99,564.000000,,2013-05-22 15:53:00,
2013-05-22 10:03:00,52.0,25.0,-100.00,ESE,109,5.0,8.0,34,0.00,,,-99.99,564.000000,,2013-05-22 16:03:00,
2013-05-22 10:33:00,57.0,22.0,-100.00,ESE,102,8.0,14.0,26,0.00,,,0.00,753.000000,,2013-05-22 16:33:00,
2013-05-22 10:42:00,57.0,22.0,-100.00,ESE,102,8.0,14.0,26,0.00,,,0.00,753.000000,,2013-05-22 16:42:00,
2013-05-22 10:52:00,57.0,22.0,-100.00,ESE,102,8.0,14.0,26,0.00,,,0.00,753.000000,,2013-05-22 16:52:00,
2013-05-22 11:02:00,57.0,22.0,-100.00,ESE,102,8.0,14.0,26,0.00,,,0.00,753.000000,,2013-05-22 17:02:00,
2013-05-22 11:33:00,61.0,20.0,-100.00,East,99,8.0,17.0,20,0.00,,,0.00,913.000000,,2013-05-22 17:33:00,
2013-05-22 11:42:00,61.0,20.0,-100.00,East,99,8.0,17.0,20,0.00,,,0.00,913.000000,,2013-05-22 17:42:00,
2013-05-22 11:54:00,61.0,20.0,-100.00,East,99,8.0,17.0,20,0.00,,,0.00,913.000000,,2013-05-22 17:54:00,
2013-05-22 12:02:00,61.0,20.0,-100.00,East,99,8.0,17.0,20,0.00,,,0.00,913.000000,,2013-05-22 18:02:00,
2013-05-22 12:34:00,58.0,23.0,-100.00,East,84,12.0,23.0,26,0.00,,,0.00,565.000000,,2013-05-22 18:34:00,
2013-05-22 12:42:00,58.0,23.0,-100.00,East,84,12.0,23.0,26,0.00,,,0.00,565.000000,,2013-05-22 18:42:00,
2013-05-22 12:52:00,58.0,23.0,-100.00,East,84,12.0,23.0,26,0.00,,,0.00,565.000000,,2013-05-22 18:52:00,
2013-05-22 13:02:00,58.0,23.0,-100.00,East,84,12.0,23.0,26,0.00,,,0.00,565.000000,,2013-05-22 19:02:00,
2013-05-22 13:32:00,58.0,21.0,-100.00,East,89,11.0,20.0,24,0.00,,,0.00,488.000000,,2013-05-22 19:32:00,
2013-05-22 13:42:00,58.0,21.0,-100.00,East,89,11.0,20.0,24,0.00,,,0.00,488.000000,,2013-05-22 19:42:00,
2013-05-22 13:52:00,58.0,21.0,-100.00,East,89,11.0,20.0,24,0.00,,,0.00,488.000000,,2013-05-22 19:52:00,
2013-05-22 14:02:00,58.0,21.0,-100.00,East,89,11.0,20.0,24,0.00,,,0.00,488.000000,,2013-05-22 20:02:00,
2013-05-22 14:32:00,62.0,24.0,-100.00,ESE,108,10.0,20.0,23,0.00,,,0.00,592.000000,,2013-05-22 20:32:00,
2013-05-22 14:42:00,62.0,24.0,-100.00,ESE,108,10.0,20.0,23,0.00,,,0.00,592.000000,,2013-05-22 20:42:00,
2013-05-22 14:52:00,62.0,24.0,-100.00,ESE,108,10.0,20.0,23,0.00,,,0.00,592.000000,,2013-05-22 20:52:00,
2013-05-22 15:01:00,62.0,24.0,-100.00,ESE,108,10.0,20.0,23,0.00,,,0.00,592.000000,,2013-05-22 21:01:00,
2013-05-22 15:33:00,61.0,21.0,-100.00,SE,137,10.0,21.0,21,0.00,,,0.00,435.000000,,2013-05-22 21:33:00,
2013-05-22 15:42:00,61.0,21.0,-100.00,SE,137,10.0,21.0,21,0.00,,,0.00,435.000000,,2013-05-22 21:42:00,
2013-05-22 15:53:00,61.0,21.0,-100.00,SE,137,10.0,21.0,21,0.00,,,0.00,435.000000,,2013-05-22 21:53:00,
2013-05-22 16:03:00,61.0,21.0,-100.00,SE,137,10.0,21.0,21,0.00,,,0.00,435.000000,,2013-05-22 22:03:00,
2013-05-22 17:32:00,62.0,18.0,-100.00,NW,304,6.0,14.0,18,-99.99,,,0.00,287.000000,,2013-05-22 23:32:00,
2013-05-22 17:42:00,62.0,18.0,-100.00,NW,304,6.0,14.0,18,-99.99,,,0.00,287.000000,,2013-05-22 23:42:00,
2013-05-22 17:53:00,62.0,18.0,-100.00,NW,304,6.0,14.0,18,-99.99,,,0.00,287.000000,,2013-05-22 23:53:00,
2013-05-22 18:01:00,62.0,18.0,-100.00,NW,304,6.0,14.0,18,-99.99,,,0.00,287.000000,,2013-05-23 00:01:00,
2013-05-22 18:32:00,59.0,18.0,-100.00,WNW,297,6.0,17.0,20,0.00,,,0.00,155.000000,,2013-05-23 00:32:00,
2013-05-22 18:42:00,59.0,18.0,-100.00,WNW,297,6.0,17.0,20,0.00,,,0.00,155.000000,,2013-05-23 00:42:00,
2013-05-22 18:52:00,59.0,18.0,-100.00,WNW,297,6.0,17.0,20,0.00,,,0.00,155.000000,,2013-05-23 00:52:00,
2013-05-22 19:01:00,59.0,18.0,-100.00,WNW,297,6.0,17.0,20,0.00,,,0.00,155.000000,,2013-05-23 01:01:00,
2013-05-22 19:32:00,57.0,20.0,-100.00,NW,306,5.0,13.0,23,0.00,,,0.00,103.000000,,2013-05-23 01:32:00,
2013-05-22 19:42:00,57.0,20.0,-100.00,NW,306,5.0,13.0,23,0.00,,,0.00,103.000000,,2013-05-23 01:42:00,
2013-05-22 19:52:00,57.0,20.0,-100.00,NW,306,5.0,13.0,23,0.00,,,0.00,103.000000,,2013-05-23 01:52:00,
2013-05-22 20:01:00,57.0,20.0,-100.00,NW,306,5.0,13.0,23,0.00,,,0.00,103.000000,,2013-05-23 02:01:00,
2013-05-22 20:32:00,53.0,21.0,-100.00,NNW,335,2.0,6.0,28,0.00,,,0.00,15.000000,,2013-05-23 02:32:00,
2013-05-22 20:42:00,53.0,21.0,-100.00,NNW,335,2.0,6.0,28,0.00,,,0.00,15.000000,,2013-05-23 02:42:00,
2013-05-22 20:52:00,53.0,21.0,-100.00,NNW,335,2.0,6.0,28,0.00,,,0.00,15.000000,,2013-05-23 02:52:00,
2013-05-22 21:01:00,53.0,21.0,-100.00,NNW,335,2.0,6.0,28,0.00,,,0.00,15.000000,,2013-05-23 03:01:00,
2013-05-22 21:33:00,51.0,21.0,-100.00,SSE,166,3.0,9.0,30,0.00,,,0.00,1.000000,,2013-05-23 03:33:00,
2013-05-22 21:43:00,51.0,21.0,-100.00,SSE,166,3.0,9.0,30,0.00,,,0.00,1.000000,,2013-05-23 03:43:00,
2013-05-22 21:53:00,51.0,21.0,-100.00,SSE,166,3.0,9.0,30,0.00,,,0.00,1.000000,,2013-05-23 03:53:00,
2013-05-22 22:03:00,51.0,21.0,-100.00,SSE,166,3.0,9.0,30,0.00,,,0.00,1.000000,,2013-05-23 04:03:00,
2013-05-22 22:33:00,52.0,21.0,-100.00,SE,129,3.0,6.0,29,0.00,,,0.00,0.000000,,2013-05-23 04:33:00,
2013-05-22 22:43:00,52.0,21.0,-100.00,SE,129,3.0,6.0,29,0.00,,,0.00,0.000000,,2013-05-23 04:43:00,
2013-05-22 22:52:00,52.0,21.0,-100.00,SE,129,3.0,6.0,29,0.00,,,0.00,0.000000,,2013-05-23 04:52:00,
2013-05-22 23:02:00,52.0,21.0,-100.00,SE,129,3.0,6.0,29,0.00,,,0.00,0.000000,,2013-05-23 05:02:00,
2013-05-22 23:32:00,50.0,21.0,-100.00,SE,141,4.0,5.0,31,0.00,,,0.00,0.000000,,2013-05-23 05:32:00,
2013-05-22 23:43:00,50.0,21.0,-100.00,SE,141,4.0,5.0,31,0.00,,,0.00,0.000000,,2013-05-23 05:43:00,
2013-05-22 23:52:00,50.0,21.0,-100.00,SE,141,4.0,5.0,31,0.00,,,0.00,0.000000,,2013-05-23 05:52:00,